UAE815 OMDB-OERK
Flight info
| Callsign | UAE815 |
|---|---|
| Flight time | 2h 6m |
| Altitude | 38000 |
| Route | SENPA N571 ALPOB L768 ULADA T136 OTISU N112 GETOT Q212 MEMGO |
| Aircraft | A359/H-SDE2E3GHIJ3J4J5LM1ORWXY/LB1D1 |
Departure
| Time | 2026-04-23 08:07 |
|---|---|
| Airport | Dubai International Airport (OMDB) |
Arrival
| Time | 2026-04-23 10:13 |
|---|---|
| Airport | King Khalid International Airport (OERK) |
| Time | Latitude | Longitude | Altitude | Speed | Heading |
|---|---|---|---|---|---|
| 2026-04-23 07:20 | 25.24807 | 55.36436 | 28 ft | 0 kts | 211° |
| 2026-04-23 07:56 | 25.24825 | 55.36448 | 27 ft | 4 kts | 211° |
| 2026-04-23 07:56 | 25.24847 | 55.36464 | 28 ft | 4 kts | 217° |
| 2026-04-23 07:56 | 25.24865 | 55.36478 | 28 ft | 4 kts | 185° |
| 2026-04-23 07:56 | 25.24886 | 55.36477 | 28 ft | 4 kts | 158° |
| 2026-04-23 07:57 | 25.24903 | 55.36464 | 28 ft | 4 kts | 121° |
| 2026-04-23 07:57 | 25.24914 | 55.36441 | 28 ft | 2 kts | 122° |
| 2026-04-23 07:57 | 25.24915 | 55.36441 | 28 ft | 0 kts | 122° |
| 2026-04-23 08:01 | 25.24909 | 55.36451 | 28 ft | 5 kts | 121° |
| 2026-04-23 08:01 | 25.24877 | 55.36510 | 27 ft | 13 kts | 120° |
| 2026-04-23 08:01 | 25.24822 | 55.36619 | 28 ft | 20 kts | 118° |
| 2026-04-23 08:02 | 25.24777 | 55.36780 | 28 ft | 24 kts | 105° |
| 2026-04-23 08:02 | 25.24759 | 55.36935 | 29 ft | 17 kts | 68° |
| 2026-04-23 08:02 | 25.24751 | 55.37035 | 29 ft | 12 kts | 117° |
| 2026-04-23 08:02 | 25.24703 | 55.37123 | 30 ft | 15 kts | 122° |
| 2026-04-23 08:03 | 25.24642 | 55.37233 | 29 ft | 19 kts | 121° |
| 2026-04-23 08:03 | 25.24568 | 55.37365 | 29 ft | 22 kts | 122° |
| 2026-04-23 08:03 | 25.24483 | 55.37514 | 29 ft | 24 kts | 122° |
| 2026-04-23 08:03 | 25.24390 | 55.37680 | 29 ft | 26 kts | 122° |
| 2026-04-23 08:04 | 25.24348 | 55.37812 | 30 ft | 10 kts | 65° |
| 2026-04-23 08:04 | 25.24387 | 55.37860 | 32 ft | 6 kts | 33° |
| 2026-04-23 08:04 | 25.24420 | 55.37883 | 35 ft | 6 kts | 32° |
| 2026-04-23 08:04 | 25.24455 | 55.37909 | 36 ft | 7 kts | 35° |
| 2026-04-23 08:05 | 25.24509 | 55.37951 | 36 ft | 12 kts | 35° |
| 2026-04-23 08:05 | 25.24598 | 55.38020 | 31 ft | 19 kts | 35° |
| 2026-04-23 08:05 | 25.24712 | 55.38094 | 35 ft | 18 kts | 22° |
| 2026-04-23 08:05 | 25.24771 | 55.38082 | 37 ft | 5 kts | 315° |
| 2026-04-23 08:06 | 25.24798 | 55.38040 | 36 ft | 9 kts | 303° |
| 2026-04-23 08:06 | 25.24815 | 55.38010 | 36 ft | 0 kts | 302° |
| 2026-04-23 08:06 | 25.24831 | 55.37982 | 36 ft | 22 kts | 302° |
| 2026-04-23 08:06 | 25.25051 | 55.37586 | 38 ft | 97 kts | 301° |
| 2026-04-23 08:07 | 25.25518 | 55.36745 | 35 ft | 158 kts | 302° |
| 2026-04-23 08:07 | 25.26146 | 55.35623 | 542 ft | 173 kts | 302° |
| 2026-04-23 08:07 | 25.26764 | 55.34511 | 1451 ft | 170 kts | 302° |
| 2026-04-23 08:07 | 25.27429 | 55.33318 | 1894 ft | 195 kts | 302° |
| 2026-04-23 08:08 | 25.28182 | 55.31961 | 2223 ft | 219 kts | 301° |
| 2026-04-23 08:08 | 25.28960 | 55.30449 | 2776 ft | 232 kts | 294° |
| 2026-04-23 08:08 | 25.29179 | 55.28689 | 3548 ft | 235 kts | 258° |
| 2026-04-23 08:08 | 25.28620 | 55.27004 | 4398 ft | 234 kts | 244° |
| 2026-04-23 08:09 | 25.27904 | 55.25383 | 5221 ft | 235 kts | 244° |
| 2026-04-23 08:09 | 25.27187 | 55.23764 | 5993 ft | 236 kts | 243° |
| 2026-04-23 08:09 | 25.26466 | 55.22128 | 6718 ft | 238 kts | 244° |
| 2026-04-23 08:09 | 25.25743 | 55.20467 | 7434 ft | 241 kts | 244° |
| 2026-04-23 08:10 | 25.24995 | 55.18802 | 8134 ft | 244 kts | 240° |
| 2026-04-23 08:10 | 25.23874 | 55.17391 | 8815 ft | 249 kts | 216° |
| 2026-04-23 08:10 | 25.20414 | 55.16796 | 10070 ft | 268 kts | 171° |
| 2026-04-23 08:11 | 25.18682 | 55.17597 | 10800 ft | 276 kts | 146° |
| 2026-04-23 08:11 | 25.17354 | 55.19206 | 11280 ft | 296 kts | 122° |
| 2026-04-23 08:11 | 25.16367 | 55.21254 | 11867 ft | 308 kts | 118° |
| 2026-04-23 08:11 | 25.15403 | 55.23384 | 12685 ft | 312 kts | 118° |
| 2026-04-23 08:12 | 25.14412 | 55.25521 | 13495 ft | 315 kts | 119° |
| 2026-04-23 08:12 | 25.13394 | 55.27683 | 14249 ft | 320 kts | 120° |
| 2026-04-23 08:12 | 25.12356 | 55.29869 | 15016 ft | 324 kts | 120° |
| 2026-04-23 08:12 | 25.11296 | 55.32081 | 15750 ft | 328 kts | 120° |
| 2026-04-23 08:13 | 25.10232 | 55.34322 | 16470 ft | 332 kts | 118° |
| 2026-04-23 08:13 | 25.09269 | 55.36628 | 17162 ft | 337 kts | 116° |
| 2026-04-23 08:13 | 25.08320 | 55.39003 | 17835 ft | 341 kts | 116° |
| 2026-04-23 08:13 | 25.07351 | 55.41405 | 18525 ft | 344 kts | 116° |
| 2026-04-23 08:14 | 25.06382 | 55.43846 | 19037 ft | 354 kts | 115° |
| 2026-04-23 08:14 | 25.05408 | 55.46406 | 19313 ft | 370 kts | 115° |
| 2026-04-23 08:14 | 25.04397 | 55.49071 | 19581 ft | 385 kts | 115° |
| 2026-04-23 08:14 | 25.03337 | 55.51846 | 19857 ft | 400 kts | 115° |
| 2026-04-23 08:15 | 25.02215 | 55.54711 | 20142 ft | 413 kts | 117° |
| 2026-04-23 08:15 | 25.00843 | 55.57523 | 20547 ft | 420 kts | 123° |
| 2026-04-23 08:15 | 24.99346 | 55.60304 | 21089 ft | 424 kts | 123° |
| 2026-04-23 08:15 | 24.97825 | 55.63107 | 21653 ft | 427 kts | 123° |
| 2026-04-23 08:16 | 24.96297 | 55.65927 | 22170 ft | 432 kts | 123° |
| 2026-04-23 08:16 | 24.94743 | 55.68785 | 22689 ft | 436 kts | 124° |
| 2026-04-23 08:16 | 24.93049 | 55.71567 | 23209 ft | 438 kts | 128° |
| 2026-04-23 08:16 | 24.91252 | 55.74292 | 23724 ft | 441 kts | 129° |
| 2026-04-23 08:17 | 24.89430 | 55.77029 | 24199 ft | 445 kts | 129° |
| 2026-04-23 08:17 | 24.87590 | 55.79795 | 24682 ft | 450 kts | 129° |
| 2026-04-23 08:17 | 24.85732 | 55.82590 | 25130 ft | 455 kts | 129° |
| 2026-04-23 08:17 | 24.83857 | 55.85413 | 25600 ft | 459 kts | 129° |
| 2026-04-23 08:18 | 24.81848 | 55.88155 | 26043 ft | 461 kts | 136° |
| 2026-04-23 08:18 | 24.79437 | 55.90470 | 26497 ft | 460 kts | 148° |
| 2026-04-23 08:18 | 24.76655 | 55.92195 | 26934 ft | 459 kts | 160° |
| 2026-04-23 08:18 | 24.73620 | 55.93254 | 27388 ft | 458 kts | 172° |
| 2026-04-23 08:19 | 24.70464 | 55.93648 | 27833 ft | 457 kts | 181° |
| 2026-04-23 08:19 | 24.67272 | 55.93707 | 28172 ft | 461 kts | 185° |
| 2026-04-23 08:19 | 24.64093 | 55.93362 | 28627 ft | 458 kts | 194° |
| 2026-04-23 08:19 | 24.61025 | 55.92466 | 29063 ft | 456 kts | 204° |
| 2026-04-23 08:20 | 24.58142 | 55.91029 | 29449 ft | 455 kts | 213° |
| 2026-04-23 08:20 | 24.55531 | 55.89078 | 29862 ft | 453 kts | 223° |
| 2026-04-23 08:20 | 24.53105 | 55.86867 | 30289 ft | 454 kts | 224° |
| 2026-04-23 08:20 | 24.50723 | 55.84574 | 30695 ft | 456 kts | 225° |
| 2026-04-23 08:21 | 24.48380 | 55.82272 | 31067 ft | 459 kts | 226° |
| 2026-04-23 08:21 | 24.45994 | 55.79923 | 31416 ft | 463 kts | 226° |
| 2026-04-23 08:21 | 24.43584 | 55.77564 | 31798 ft | 465 kts | 226° |
| 2026-04-23 08:21 | 24.41155 | 55.75205 | 32120 ft | 468 kts | 226° |
| 2026-04-23 08:22 | 24.38704 | 55.72841 | 32438 ft | 471 kts | 226° |
| 2026-04-23 08:22 | 24.36233 | 55.70466 | 32764 ft | 473 kts | 226° |
| 2026-04-23 08:22 | 24.33750 | 55.68087 | 33085 ft | 475 kts | 226° |
| 2026-04-23 08:22 | 24.31256 | 55.65698 | 33363 ft | 478 kts | 226° |
| 2026-04-23 08:23 | 24.28697 | 55.63347 | 33637 ft | 483 kts | 222° |
| 2026-04-23 08:23 | 24.25858 | 55.61319 | 34003 ft | 490 kts | 214° |
| 2026-04-23 08:23 | 24.22748 | 55.59772 | 34409 ft | 496 kts | 205° |
| 2026-04-23 08:23 | 24.19451 | 55.58605 | 34795 ft | 498 kts | 202° |
| 2026-04-23 08:24 | 24.16118 | 55.57562 | 35187 ft | 498 kts | 201° |
| 2026-04-23 08:24 | 24.12777 | 55.56580 | 35565 ft | 497 kts | 201° |
| 2026-04-23 08:24 | 24.09432 | 55.55617 | 35855 ft | 498 kts | 201° |
| 2026-04-23 08:24 | 24.06077 | 55.54648 | 36172 ft | 498 kts | 201° |
| 2026-04-23 08:25 | 24.02740 | 55.53676 | 36500 ft | 497 kts | 201° |
| 2026-04-23 08:25 | 23.99403 | 55.52696 | 36816 ft | 496 kts | 201° |
| 2026-04-23 08:25 | 23.96073 | 55.51711 | 37124 ft | 495 kts | 202° |
| 2026-04-23 08:25 | 23.92757 | 55.50729 | 37495 ft | 492 kts | 202° |
| 2026-04-23 08:26 | 23.89458 | 55.49750 | 37785 ft | 491 kts | 202° |
| 2026-04-23 08:26 | 23.86168 | 55.48773 | 37842 ft | 489 kts | 202° |
| 2026-04-23 08:26 | 23.79610 | 55.46826 | 37842 ft | 488 kts | 202° |
| 2026-04-23 08:27 | 23.73050 | 55.44872 | 37841 ft | 489 kts | 202° |
| 2026-04-23 08:27 | 23.66485 | 55.42919 | 37842 ft | 489 kts | 202° |
| 2026-04-23 08:28 | 23.59914 | 55.40974 | 37832 ft | 489 kts | 202° |
| 2026-04-23 08:28 | 23.53343 | 55.39031 | 37840 ft | 489 kts | 202° |
| 2026-04-23 08:29 | 23.46778 | 55.37097 | 37841 ft | 489 kts | 202° |
| 2026-04-23 08:29 | 23.40207 | 55.35152 | 37842 ft | 489 kts | 202° |
| 2026-04-23 08:30 | 23.33633 | 55.33207 | 37843 ft | 489 kts | 202° |
| 2026-04-23 08:30 | 23.27064 | 55.31269 | 37841 ft | 489 kts | 202° |
| 2026-04-23 08:31 | 23.20488 | 55.29331 | 37849 ft | 490 kts | 202° |
| 2026-04-23 08:31 | 23.13972 | 55.27351 | 37850 ft | 487 kts | 206° |
| 2026-04-23 08:32 | 23.08017 | 55.24108 | 37849 ft | 469 kts | 223° |
| 2026-04-23 08:32 | 23.03467 | 55.19261 | 37850 ft | 452 kts | 240° |
| 2026-04-23 08:33 | 23.00631 | 55.13331 | 37851 ft | 439 kts | 256° |
| 2026-04-23 08:33 | 22.99393 | 55.06912 | 37850 ft | 435 kts | 262° |
| 2026-04-23 08:34 | 22.98220 | 55.00472 | 37850 ft | 435 kts | 262° |
| 2026-04-23 08:34 | 22.97007 | 54.94040 | 37850 ft | 434 kts | 262° |
| 2026-04-23 08:35 | 22.95749 | 54.87627 | 37853 ft | 434 kts | 262° |
| 2026-04-23 08:35 | 22.94476 | 54.81226 | 37848 ft | 435 kts | 261° |
| 2026-04-23 08:36 | 22.93196 | 54.74817 | 37858 ft | 434 kts | 261° |
| 2026-04-23 08:36 | 22.91920 | 54.68423 | 37862 ft | 434 kts | 261° |
| 2026-04-23 08:37 | 22.90643 | 54.62037 | 37858 ft | 433 kts | 261° |
| 2026-04-23 08:37 | 22.89366 | 54.55655 | 37859 ft | 433 kts | 261° |
| 2026-04-23 08:38 | 22.88085 | 54.49270 | 37858 ft | 433 kts | 261° |
| 2026-04-23 08:38 | 22.87020 | 54.43976 | 37858 ft | 432 kts | 261° |
| 2026-04-23 08:39 | 22.85736 | 54.37608 | 37857 ft | 432 kts | 261° |
| 2026-04-23 08:39 | 22.84239 | 54.30201 | 37858 ft | 433 kts | 261° |
| 2026-04-23 08:40 | 22.82949 | 54.23830 | 37862 ft | 432 kts | 261° |
| 2026-04-23 08:40 | 22.81868 | 54.18496 | 37861 ft | 432 kts | 261° |
| 2026-04-23 08:41 | 22.80574 | 54.12135 | 37862 ft | 432 kts | 261° |
| 2026-04-23 08:41 | 22.79282 | 54.05771 | 37858 ft | 433 kts | 261° |
| 2026-04-23 08:42 | 22.78222 | 53.99372 | 37861 ft | 429 kts | 268° |
| 2026-04-23 08:42 | 22.78191 | 53.92937 | 37861 ft | 426 kts | 273° |
| 2026-04-23 08:43 | 22.78399 | 53.86536 | 37863 ft | 425 kts | 274° |
| 2026-04-23 08:43 | 22.78639 | 53.80143 | 37858 ft | 425 kts | 274° |
| 2026-04-23 08:44 | 22.78862 | 53.73746 | 37867 ft | 425 kts | 274° |
| 2026-04-23 08:44 | 22.79073 | 53.67350 | 37865 ft | 425 kts | 274° |
| 2026-04-23 08:45 | 22.79277 | 53.60960 | 37870 ft | 424 kts | 274° |
| 2026-04-23 08:45 | 22.79478 | 53.54566 | 37880 ft | 424 kts | 274° |
| 2026-04-23 08:46 | 22.79677 | 53.48175 | 37870 ft | 424 kts | 274° |
| 2026-04-23 08:46 | 22.79872 | 53.41837 | 37867 ft | 424 kts | 274° |
| 2026-04-23 08:47 | 22.80066 | 53.35458 | 37869 ft | 423 kts | 274° |
| 2026-04-23 08:47 | 22.80258 | 53.29083 | 37866 ft | 423 kts | 274° |
| 2026-04-23 08:48 | 22.80447 | 53.22702 | 37870 ft | 423 kts | 274° |
| 2026-04-23 08:48 | 22.80634 | 53.16335 | 37868 ft | 423 kts | 273° |
| 2026-04-23 08:49 | 22.80817 | 53.09968 | 37867 ft | 422 kts | 273° |
| 2026-04-23 08:49 | 22.80998 | 53.03611 | 37872 ft | 422 kts | 273° |
| 2026-04-23 08:50 | 22.81175 | 52.97248 | 37867 ft | 422 kts | 273° |
| 2026-04-23 08:50 | 22.81348 | 52.90888 | 37864 ft | 422 kts | 273° |
| 2026-04-23 08:51 | 22.81525 | 52.84524 | 37862 ft | 422 kts | 273° |
| 2026-04-23 08:51 | 22.81696 | 52.78172 | 37862 ft | 421 kts | 273° |
| 2026-04-23 08:52 | 22.81862 | 52.71828 | 37863 ft | 421 kts | 273° |
| 2026-04-23 08:52 | 22.82028 | 52.65493 | 37860 ft | 421 kts | 273° |
| 2026-04-23 08:53 | 22.82192 | 52.59156 | 37877 ft | 421 kts | 273° |
| 2026-04-23 08:53 | 22.82351 | 52.52809 | 37878 ft | 421 kts | 273° |
| 2026-04-23 08:54 | 22.82510 | 52.46468 | 37877 ft | 421 kts | 273° |
| 2026-04-23 08:54 | 22.82644 | 52.40126 | 37875 ft | 421 kts | 272° |
| 2026-04-23 08:55 | 22.82767 | 52.33780 | 37881 ft | 421 kts | 272° |
| 2026-04-23 08:55 | 22.82891 | 52.27450 | 37878 ft | 420 kts | 272° |
| 2026-04-23 08:56 | 22.83017 | 52.21127 | 37906 ft | 420 kts | 272° |
| 2026-04-23 08:56 | 22.83140 | 52.14802 | 37906 ft | 420 kts | 272° |
| 2026-04-23 08:57 | 22.83260 | 52.08473 | 37906 ft | 420 kts | 272° |
| 2026-04-23 08:57 | 22.83378 | 52.02155 | 37906 ft | 420 kts | 272° |
| 2026-04-23 08:58 | 22.83493 | 51.95824 | 37906 ft | 419 kts | 272° |
| 2026-04-23 08:58 | 22.83603 | 51.89516 | 37906 ft | 418 kts | 272° |
| 2026-04-23 08:59 | 22.83712 | 51.83214 | 37907 ft | 418 kts | 272° |
| 2026-04-23 08:59 | 22.83821 | 51.76914 | 37906 ft | 418 kts | 272° |
| 2026-04-23 09:00 | 22.83931 | 51.70609 | 37906 ft | 418 kts | 272° |
| 2026-04-23 09:00 | 22.84032 | 51.64308 | 37907 ft | 418 kts | 272° |
| 2026-04-23 09:01 | 22.84129 | 51.58012 | 37903 ft | 418 kts | 272° |
| 2026-04-23 09:01 | 22.84227 | 51.51710 | 37876 ft | 418 kts | 272° |
| 2026-04-23 09:02 | 22.84325 | 51.45406 | 37882 ft | 418 kts | 272° |
| 2026-04-23 09:02 | 22.84677 | 51.39119 | 37877 ft | 417 kts | 275° |
| 2026-04-23 09:03 | 22.85190 | 51.32850 | 37882 ft | 418 kts | 275° |
| 2026-04-23 09:03 | 22.85673 | 51.26573 | 37891 ft | 418 kts | 275° |
| 2026-04-23 09:04 | 22.86112 | 51.20299 | 37907 ft | 417 kts | 275° |
| 2026-04-23 09:04 | 22.86536 | 51.14016 | 37907 ft | 418 kts | 275° |
| 2026-04-23 09:05 | 22.86963 | 51.07740 | 37906 ft | 418 kts | 275° |
| 2026-04-23 09:05 | 22.87383 | 51.01454 | 37906 ft | 418 kts | 275° |
| 2026-04-23 09:06 | 22.87799 | 50.95177 | 37906 ft | 417 kts | 275° |
| 2026-04-23 09:06 | 22.88212 | 50.88898 | 37892 ft | 418 kts | 275° |
| 2026-04-23 09:07 | 22.88627 | 50.82607 | 37897 ft | 418 kts | 275° |
| 2026-04-23 09:07 | 22.89038 | 50.76362 | 37897 ft | 418 kts | 275° |
| 2026-04-23 09:08 | 22.89446 | 50.70075 | 37896 ft | 418 kts | 275° |
| 2026-04-23 09:08 | 22.89854 | 50.63795 | 37895 ft | 417 kts | 275° |
| 2026-04-23 09:09 | 22.90257 | 50.57521 | 37901 ft | 417 kts | 274° |
| 2026-04-23 09:09 | 22.90658 | 50.51251 | 37900 ft | 417 kts | 274° |
| 2026-04-23 09:10 | 22.91256 | 50.41842 | 37896 ft | 417 kts | 274° |
| 2026-04-23 09:11 | 22.91651 | 50.35569 | 37896 ft | 417 kts | 274° |
| 2026-04-23 09:11 | 22.92043 | 50.29298 | 37896 ft | 417 kts | 274° |
| 2026-04-23 09:12 | 22.92433 | 50.23022 | 37896 ft | 417 kts | 274° |
| 2026-04-23 09:12 | 22.92819 | 50.16745 | 37901 ft | 417 kts | 274° |
| 2026-04-23 09:13 | 22.93204 | 50.10474 | 37897 ft | 417 kts | 274° |
| 2026-04-23 09:13 | 22.93588 | 50.04198 | 37896 ft | 417 kts | 274° |
| 2026-04-23 09:14 | 22.93970 | 49.97921 | 37901 ft | 417 kts | 274° |
| 2026-04-23 09:14 | 22.94348 | 49.91648 | 37898 ft | 416 kts | 274° |
| 2026-04-23 09:15 | 22.94720 | 49.85383 | 37900 ft | 416 kts | 274° |
| 2026-04-23 09:15 | 22.95092 | 49.79117 | 37896 ft | 416 kts | 274° |
| 2026-04-23 09:16 | 22.95461 | 49.72846 | 37896 ft | 416 kts | 274° |
| 2026-04-23 09:16 | 22.95825 | 49.66581 | 37896 ft | 416 kts | 274° |
| 2026-04-23 09:17 | 22.96191 | 49.60312 | 37896 ft | 416 kts | 274° |
| 2026-04-23 09:17 | 22.96556 | 49.53977 | 37936 ft | 426 kts | 274° |
| 2026-04-23 09:18 | 22.96929 | 49.47522 | 37943 ft | 430 kts | 274° |
| 2026-04-23 09:18 | 22.97300 | 49.41041 | 37953 ft | 430 kts | 274° |
| 2026-04-23 09:19 | 22.97666 | 49.34566 | 37955 ft | 430 kts | 274° |
| 2026-04-23 09:19 | 22.98031 | 49.28097 | 37953 ft | 430 kts | 274° |
| 2026-04-23 09:20 | 22.98393 | 49.21620 | 37951 ft | 430 kts | 274° |
| 2026-04-23 09:20 | 22.98751 | 49.15144 | 37955 ft | 430 kts | 274° |
| 2026-04-23 09:21 | 22.99106 | 49.08670 | 37951 ft | 430 kts | 274° |
| 2026-04-23 09:21 | 22.99457 | 49.02191 | 37947 ft | 430 kts | 274° |
| 2026-04-23 09:22 | 22.99769 | 48.96813 | 37954 ft | 430 kts | 274° |
| 2026-04-23 09:22 | 23.00387 | 48.89308 | 37957 ft | 429 kts | 275° |
| 2026-04-23 09:23 | 23.00950 | 48.82852 | 37969 ft | 430 kts | 275° |
| 2026-04-23 09:23 | 23.01486 | 48.76395 | 37957 ft | 430 kts | 275° |
| 2026-04-23 09:24 | 23.01921 | 48.70983 | 37954 ft | 429 kts | 275° |
| 2026-04-23 09:24 | 23.02429 | 48.64570 | 37963 ft | 429 kts | 275° |
| 2026-04-23 09:25 | 23.02939 | 48.58121 | 37965 ft | 429 kts | 275° |
| 2026-04-23 09:25 | 23.03447 | 48.51674 | 37958 ft | 428 kts | 275° |
| 2026-04-23 09:26 | 23.03951 | 48.45238 | 37965 ft | 428 kts | 275° |
| 2026-04-23 09:26 | 23.04452 | 48.38789 | 37973 ft | 428 kts | 275° |
| 2026-04-23 09:27 | 23.04952 | 48.32340 | 37966 ft | 428 kts | 275° |
| 2026-04-23 09:27 | 23.05452 | 48.25896 | 37975 ft | 428 kts | 275° |
| 2026-04-23 09:28 | 23.05948 | 48.19450 | 37974 ft | 428 kts | 275° |
| 2026-04-23 09:28 | 23.06441 | 48.13005 | 37969 ft | 429 kts | 275° |
| 2026-04-23 09:29 | 23.06933 | 48.06555 | 37975 ft | 428 kts | 274° |
| 2026-04-23 09:29 | 23.07419 | 48.00104 | 37975 ft | 428 kts | 274° |
| 2026-04-23 09:30 | 23.07904 | 47.93661 | 37974 ft | 429 kts | 274° |
| 2026-04-23 09:30 | 23.08387 | 47.87208 | 37964 ft | 428 kts | 274° |
| 2026-04-23 09:31 | 23.09485 | 47.80961 | 37977 ft | 418 kts | 286° |
| 2026-04-23 09:31 | 23.12034 | 47.75279 | 37981 ft | 423 kts | 300° |
| 2026-04-23 09:32 | 23.16062 | 47.70530 | 37982 ft | 436 kts | 315° |
| 2026-04-23 09:32 | 23.21399 | 47.67179 | 37980 ft | 454 kts | 330° |
| 2026-04-23 09:33 | 23.27164 | 47.64564 | 37266 ft | 441 kts | 323° |
| 2026-04-23 09:33 | 23.29831 | 47.62897 | 36287 ft | 445 kts | 321° |
| 2026-04-23 09:33 | 23.32496 | 47.61135 | 35269 ft | 452 kts | 321° |
| 2026-04-23 09:33 | 23.35193 | 47.59327 | 34187 ft | 459 kts | 322° |
| 2026-04-23 09:34 | 23.37939 | 47.57475 | 33038 ft | 468 kts | 322° |
| 2026-04-23 09:34 | 23.40722 | 47.55593 | 31980 ft | 473 kts | 322° |
| 2026-04-23 09:34 | 23.43531 | 47.53693 | 30996 ft | 476 kts | 323° |
| 2026-04-23 09:34 | 23.46188 | 47.51588 | 30055 ft | 470 kts | 313° |
| 2026-04-23 09:35 | 23.48336 | 47.48956 | 29376 ft | 460 kts | 304° |
| 2026-04-23 09:35 | 23.50237 | 47.46185 | 28763 ft | 454 kts | 303° |
| 2026-04-23 09:35 | 23.52095 | 47.43429 | 28181 ft | 448 kts | 303° |
| 2026-04-23 09:35 | 23.53929 | 47.40710 | 27601 ft | 443 kts | 303° |
| 2026-04-23 09:36 | 23.55747 | 47.38018 | 27013 ft | 438 kts | 303° |
| 2026-04-23 09:36 | 23.57543 | 47.35361 | 26442 ft | 433 kts | 303° |
| 2026-04-23 09:36 | 23.59321 | 47.32728 | 25875 ft | 431 kts | 303° |
| 2026-04-23 09:36 | 23.61095 | 47.30098 | 25306 ft | 430 kts | 303° |
| 2026-04-23 09:37 | 23.62861 | 47.27482 | 24743 ft | 428 kts | 303° |
| 2026-04-23 09:37 | 23.64624 | 47.24869 | 24189 ft | 426 kts | 303° |
| 2026-04-23 09:37 | 23.66376 | 47.22271 | 23629 ft | 424 kts | 303° |
| 2026-04-23 09:37 | 23.68095 | 47.19724 | 23082 ft | 421 kts | 303° |
| 2026-04-23 09:38 | 23.69849 | 47.17120 | 22519 ft | 418 kts | 303° |
| 2026-04-23 09:38 | 23.71541 | 47.14608 | 21987 ft | 415 kts | 303° |
| 2026-04-23 09:38 | 23.73243 | 47.12078 | 21437 ft | 413 kts | 303° |
| 2026-04-23 09:38 | 23.74937 | 47.09560 | 20896 ft | 410 kts | 303° |
| 2026-04-23 09:39 | 23.76617 | 47.07063 | 20358 ft | 407 kts | 303° |
| 2026-04-23 09:39 | 23.78284 | 47.04584 | 19826 ft | 404 kts | 303° |
| 2026-04-23 09:39 | 23.79939 | 47.02123 | 19294 ft | 401 kts | 303° |
| 2026-04-23 09:39 | 23.81582 | 46.99675 | 18775 ft | 398 kts | 303° |
| 2026-04-23 09:40 | 23.83214 | 46.97244 | 18248 ft | 396 kts | 303° |
| 2026-04-23 09:40 | 23.84836 | 46.94826 | 17736 ft | 393 kts | 303° |
| 2026-04-23 09:40 | 23.86448 | 46.92423 | 17208 ft | 391 kts | 303° |
| 2026-04-23 09:40 | 23.88087 | 46.90058 | 16697 ft | 391 kts | 306° |
| 2026-04-23 09:41 | 23.90109 | 46.88059 | 16175 ft | 397 kts | 322° |
| 2026-04-23 09:41 | 23.92490 | 46.86527 | 15650 ft | 397 kts | 328° |
| 2026-04-23 09:41 | 23.94924 | 46.85102 | 15127 ft | 397 kts | 328° |
| 2026-04-23 09:41 | 23.97354 | 46.83683 | 14607 ft | 395 kts | 328° |
| 2026-04-23 09:42 | 23.99773 | 46.82261 | 14089 ft | 394 kts | 328° |
| 2026-04-23 09:42 | 24.02180 | 46.80839 | 13575 ft | 392 kts | 327° |
| 2026-04-23 09:42 | 24.04572 | 46.79422 | 13059 ft | 390 kts | 327° |
| 2026-04-23 09:42 | 24.06950 | 46.78007 | 12557 ft | 388 kts | 327° |
| 2026-04-23 09:43 | 24.09319 | 46.76598 | 12032 ft | 387 kts | 327° |
| 2026-04-23 09:43 | 24.11679 | 46.75197 | 11837 ft | 387 kts | 328° |
| 2026-04-23 09:43 | 24.14048 | 46.73786 | 11835 ft | 387 kts | 328° |
| 2026-04-23 09:43 | 24.16411 | 46.72378 | 11835 ft | 387 kts | 328° |
| 2026-04-23 09:44 | 24.18773 | 46.70970 | 11833 ft | 386 kts | 328° |
| 2026-04-23 09:44 | 24.21134 | 46.69561 | 11834 ft | 386 kts | 328° |
| 2026-04-23 09:44 | 24.23493 | 46.68155 | 11834 ft | 386 kts | 327° |
| 2026-04-23 09:44 | 24.25846 | 46.66748 | 11833 ft | 386 kts | 327° |
| 2026-04-23 09:45 | 24.28205 | 46.65336 | 11834 ft | 386 kts | 327° |
| 2026-04-23 09:45 | 24.30564 | 46.63927 | 11844 ft | 386 kts | 328° |
| 2026-04-23 09:45 | 24.32921 | 46.62521 | 11853 ft | 386 kts | 327° |
| 2026-04-23 09:45 | 24.35280 | 46.61111 | 11846 ft | 387 kts | 328° |
| 2026-04-23 09:46 | 24.37643 | 46.59702 | 11847 ft | 386 kts | 328° |
| 2026-04-23 09:46 | 24.40002 | 46.58292 | 11836 ft | 387 kts | 328° |
| 2026-04-23 09:46 | 24.42365 | 46.56886 | 11500 ft | 386 kts | 328° |
| 2026-04-23 09:46 | 24.44717 | 46.55474 | 10786 ft | 384 kts | 328° |
| 2026-04-23 09:47 | 24.47048 | 46.54070 | 10382 ft | 380 kts | 329° |
| 2026-04-23 09:47 | 24.49372 | 46.52672 | 10121 ft | 381 kts | 330° |
| 2026-04-23 09:47 | 24.51686 | 46.51285 | 9902 ft | 377 kts | 330° |
| 2026-04-23 09:47 | 24.53944 | 46.49932 | 9691 ft | 361 kts | 331° |
| 2026-04-23 09:48 | 24.56105 | 46.48634 | 9491 ft | 347 kts | 331° |
| 2026-04-23 09:48 | 24.58179 | 46.47388 | 9286 ft | 334 kts | 331° |
| 2026-04-23 09:48 | 24.60184 | 46.46185 | 9112 ft | 322 kts | 332° |
| 2026-04-23 09:48 | 24.62121 | 46.45020 | 8872 ft | 313 kts | 332° |
| 2026-04-23 09:49 | 24.64007 | 46.43885 | 8646 ft | 305 kts | 332° |
| 2026-04-23 09:49 | 24.65860 | 46.42770 | 8400 ft | 304 kts | 332° |
| 2026-04-23 09:49 | 24.67713 | 46.41654 | 8150 ft | 303 kts | 332° |
| 2026-04-23 09:49 | 24.69554 | 46.40540 | 7889 ft | 301 kts | 332° |
| 2026-04-23 09:50 | 24.71364 | 46.39396 | 7674 ft | 299 kts | 331° |
| 2026-04-23 09:50 | 24.73162 | 46.38244 | 7546 ft | 299 kts | 331° |
| 2026-04-23 09:50 | 24.74954 | 46.37100 | 7405 ft | 297 kts | 331° |
| 2026-04-23 09:50 | 24.76739 | 46.35958 | 7304 ft | 296 kts | 331° |
| 2026-04-23 09:51 | 24.78553 | 46.34900 | 7246 ft | 294 kts | 339° |
| 2026-04-23 09:51 | 24.80518 | 46.34331 | 7184 ft | 292 kts | 354° |
| 2026-04-23 09:51 | 24.82526 | 46.34105 | 6984 ft | 289 kts | 358° |
| 2026-04-23 09:51 | 24.84533 | 46.33962 | 6876 ft | 288 kts | 359° |
| 2026-04-23 09:52 | 24.86526 | 46.33832 | 6758 ft | 287 kts | 359° |
| 2026-04-23 09:52 | 24.88519 | 46.33708 | 6635 ft | 287 kts | 359° |
| 2026-04-23 09:52 | 24.90508 | 46.33588 | 6509 ft | 286 kts | 359° |
| 2026-04-23 09:52 | 24.92490 | 46.33470 | 6386 ft | 285 kts | 359° |
| 2026-04-23 09:53 | 24.94460 | 46.33354 | 6273 ft | 283 kts | 359° |
| 2026-04-23 09:53 | 24.96424 | 46.33237 | 6149 ft | 282 kts | 359° |
| 2026-04-23 09:53 | 24.98386 | 46.33123 | 6012 ft | 282 kts | 359° |
| 2026-04-23 09:53 | 25.00339 | 46.33007 | 5895 ft | 281 kts | 359° |
| 2026-04-23 09:54 | 25.02282 | 46.32893 | 5775 ft | 279 kts | 359° |
| 2026-04-23 09:54 | 25.04220 | 46.32781 | 5644 ft | 279 kts | 359° |
| 2026-04-23 09:54 | 25.06128 | 46.32670 | 5519 ft | 278 kts | 359° |
| 2026-04-23 09:54 | 25.08057 | 46.32552 | 5393 ft | 277 kts | 359° |
| 2026-04-23 09:55 | 25.09965 | 46.32441 | 5287 ft | 272 kts | 359° |
| 2026-04-23 09:55 | 25.11870 | 46.32324 | 5211 ft | 275 kts | 359° |
| 2026-04-23 09:55 | 25.13764 | 46.32211 | 5097 ft | 272 kts | 359° |
| 2026-04-23 09:55 | 25.15660 | 46.32102 | 5007 ft | 274 kts | 359° |
| 2026-04-23 09:56 | 25.17561 | 46.31997 | 5004 ft | 274 kts | 359° |
| 2026-04-23 09:56 | 25.19465 | 46.31888 | 4998 ft | 274 kts | 359° |
| 2026-04-23 09:56 | 25.21340 | 46.31773 | 4981 ft | 262 kts | 358° |
| 2026-04-23 09:56 | 25.23117 | 46.31659 | 4927 ft | 250 kts | 359° |
| 2026-04-23 09:57 | 25.24814 | 46.31561 | 4846 ft | 237 kts | 359° |
| 2026-04-23 09:57 | 25.26412 | 46.31464 | 4777 ft | 223 kts | 359° |
| 2026-04-23 09:57 | 25.27959 | 46.31372 | 4670 ft | 226 kts | 359° |
| 2026-04-23 09:57 | 25.29501 | 46.31270 | 4566 ft | 221 kts | 358° |
| 2026-04-23 09:58 | 25.31031 | 46.30955 | 4521 ft | 222 kts | 343° |
| 2026-04-23 09:58 | 25.32440 | 46.30210 | 4478 ft | 229 kts | 333° |
| 2026-04-23 09:58 | 25.33800 | 46.29346 | 4347 ft | 226 kts | 332° |
| 2026-04-23 09:58 | 25.35163 | 46.28466 | 4260 ft | 223 kts | 332° |
| 2026-04-23 09:59 | 25.36519 | 46.27592 | 4180 ft | 227 kts | 332° |
| 2026-04-23 09:59 | 25.37870 | 46.26735 | 4074 ft | 225 kts | 333° |
| 2026-04-23 09:59 | 25.39329 | 46.26171 | 3963 ft | 218 kts | 354° |
| 2026-04-23 09:59 | 25.40837 | 46.26324 | 3888 ft | 218 kts | 19° |
| 2026-04-23 10:00 | 25.42106 | 46.27168 | 3798 ft | 217 kts | 44° |
| 2026-04-23 10:00 | 25.42992 | 46.28473 | 3718 ft | 213 kts | 60° |
| 2026-04-23 10:00 | 25.43727 | 46.29902 | 3625 ft | 210 kts | 61° |
| 2026-04-23 10:00 | 25.44450 | 46.31329 | 3554 ft | 214 kts | 61° |
| 2026-04-23 10:01 | 25.45154 | 46.32758 | 3456 ft | 214 kts | 64° |
| 2026-04-23 10:01 | 25.45546 | 46.34321 | 3356 ft | 207 kts | 85° |
| 2026-04-23 10:01 | 25.45352 | 46.35828 | 3252 ft | 192 kts | 108° |
| 2026-04-23 10:01 | 25.44655 | 46.37107 | 3143 ft | 200 kts | 129° |
| 2026-04-23 10:02 | 25.43546 | 46.38065 | 3100 ft | 204 kts | 147° |
| 2026-04-23 10:02 | 25.42310 | 46.38841 | 3051 ft | 204 kts | 149° |
| 2026-04-23 10:02 | 25.41064 | 46.39604 | 3014 ft | 205 kts | 148° |
| 2026-04-23 10:02 | 25.39825 | 46.40377 | 2997 ft | 205 kts | 148° |
| 2026-04-23 10:03 | 25.38588 | 46.41157 | 2998 ft | 205 kts | 148° |
| 2026-04-23 10:03 | 25.37353 | 46.41941 | 3000 ft | 205 kts | 147° |
| 2026-04-23 10:03 | 25.36123 | 46.42730 | 3000 ft | 203 kts | 147° |
| 2026-04-23 10:03 | 25.34897 | 46.43513 | 2999 ft | 204 kts | 148° |
| 2026-04-23 10:04 | 25.33660 | 46.44295 | 3002 ft | 205 kts | 148° |
| 2026-04-23 10:04 | 25.32389 | 46.45038 | 2996 ft | 212 kts | 152° |
| 2026-04-23 10:04 | 25.31027 | 46.45780 | 2989 ft | 223 kts | 151° |
| 2026-04-23 10:04 | 25.29706 | 46.46500 | 2987 ft | 225 kts | 151° |
| 2026-04-23 10:05 | 25.28317 | 46.47255 | 2997 ft | 225 kts | 151° |
| 2026-04-23 10:05 | 25.26912 | 46.48019 | 3003 ft | 225 kts | 151° |
| 2026-04-23 10:05 | 25.25506 | 46.48783 | 2998 ft | 225 kts | 151° |
| 2026-04-23 10:05 | 25.24101 | 46.49549 | 2999 ft | 226 kts | 151° |
| 2026-04-23 10:06 | 25.22695 | 46.50312 | 2991 ft | 225 kts | 151° |
| 2026-04-23 10:06 | 25.21288 | 46.51077 | 2975 ft | 226 kts | 151° |
| 2026-04-23 10:06 | 25.19878 | 46.51843 | 2970 ft | 226 kts | 151° |
| 2026-04-23 10:06 | 25.18472 | 46.52612 | 2970 ft | 226 kts | 151° |
| 2026-04-23 10:07 | 25.17089 | 46.53423 | 2982 ft | 225 kts | 145° |
| 2026-04-23 10:07 | 25.15833 | 46.54333 | 2988 ft | 203 kts | 143° |
| 2026-04-23 10:07 | 25.14766 | 46.55178 | 3005 ft | 175 kts | 140° |
| 2026-04-23 10:07 | 25.13849 | 46.55958 | 3018 ft | 161 kts | 139° |
| 2026-04-23 10:08 | 25.12985 | 46.56690 | 3033 ft | 149 kts | 139° |
| 2026-04-23 10:08 | 25.12181 | 46.57360 | 3037 ft | 143 kts | 139° |
| 2026-04-23 10:08 | 25.11422 | 46.58049 | 3045 ft | 141 kts | 132° |
| 2026-04-23 10:09 | 25.09791 | 46.59282 | 3045 ft | 143 kts | 146° |
| 2026-04-23 10:09 | 25.09225 | 46.59663 | 3045 ft | 144 kts | 144° |
| 2026-04-23 10:09 | 25.08380 | 46.60253 | 3060 ft | 144 kts | 144° |
| 2026-04-23 10:09 | 25.07526 | 46.60826 | 3039 ft | 143 kts | 145° |
| 2026-04-23 10:10 | 25.06760 | 46.61507 | 3039 ft | 141 kts | 127° |
| 2026-04-23 10:10 | 25.06271 | 46.62427 | 3058 ft | 138 kts | 107° |
| 2026-04-23 10:10 | 25.06056 | 46.63453 | 3103 ft | 139 kts | 98° |
| 2026-04-23 10:10 | 25.05833 | 46.64493 | 3152 ft | 141 kts | 105° |
| 2026-04-23 10:11 | 25.05313 | 46.65422 | 3114 ft | 146 kts | 131° |
| 2026-04-23 10:11 | 25.04478 | 46.66067 | 3053 ft | 147 kts | 144° |
| 2026-04-23 10:11 | 25.03566 | 46.66577 | 3003 ft | 147 kts | 151° |
| 2026-04-23 10:11 | 25.02654 | 46.67095 | 2914 ft | 148 kts | 148° |
| 2026-04-23 10:12 | 25.01761 | 46.67650 | 2785 ft | 147 kts | 147° |
| 2026-04-23 10:12 | 25.00868 | 46.68194 | 2628 ft | 146 kts | 148° |
| 2026-04-23 10:12 | 24.99992 | 46.68754 | 2464 ft | 145 kts | 145° |
| 2026-04-23 10:12 | 24.99119 | 46.69297 | 2371 ft | 145 kts | 147° |
| 2026-04-23 10:13 | 24.98228 | 46.69865 | 2150 ft | 147 kts | 147° |
| 2026-04-23 10:13 | 24.97350 | 46.70412 | 2046 ft | 141 kts | 148° |
| 2026-04-23 10:13 | 24.96642 | 46.70862 | 2042 ft | 81 kts | 150° |
| 2026-04-23 10:13 | 24.96415 | 46.71006 | 2036 ft | 0 kts | 150° |
| 2026-04-23 10:14 | 24.96401 | 46.71015 | 2044 ft | 6 kts | 150° |
| 2026-04-23 10:14 | 24.96338 | 46.71052 | 2042 ft | 14 kts | 155° |
| 2026-04-23 10:14 | 24.96223 | 46.71088 | 2044 ft | 20 kts | 170° |
| 2026-04-23 10:14 | 24.96069 | 46.71076 | 2042 ft | 25 kts | 200° |
| 2026-04-23 10:15 | 24.95999 | 46.71020 | 2037 ft | 4 kts | 228° |
| 2026-04-23 10:15 | 24.95970 | 46.70973 | 2037 ft | 12 kts | 236° |
| 2026-04-23 10:15 | 24.95912 | 46.70873 | 2037 ft | 18 kts | 242° |
| 2026-04-23 10:15 | 24.95863 | 46.70776 | 2037 ft | 17 kts | 242° |
| 2026-04-23 10:16 | 24.95886 | 46.70685 | 2040 ft | 13 kts | 316° |
| 2026-04-23 10:16 | 24.95977 | 46.70620 | 2043 ft | 19 kts | 330° |
| 2026-04-23 10:16 | 24.96109 | 46.70539 | 2036 ft | 25 kts | 330° |
| 2026-04-23 10:16 | 24.96158 | 46.70505 | 2044 ft | 3 kts | 315° |
| 2026-04-23 10:17 | 24.96166 | 46.70478 | 2036 ft | 6 kts | 272° |
| 2026-04-23 10:17 | 24.96158 | 46.70411 | 2039 ft | 11 kts | 259° |
| 2026-04-23 10:17 | 24.96155 | 46.70395 | 2036 ft | 3 kts | 258° |
| 2026-04-23 10:17 | 24.96155 | 46.70394 | 2036 ft | 0 kts | 258° |